Terminal Aerodrome Forecast
Issued by NWS Memphis, TN

Current Version | Previous Version | Text Only | Print | Product List | Glossary On
Versions: 1 2 3 4 5 6 7 8 9 10 11 12 13 14 15 16 17 18 19 20 21 22 23
000
FTUS44 KMEG 020500
TAFMKL
TAF
KMKL 020529Z 0206/0306 19006KT P6SM FEW015 BKN250
      TEMPO 0213/0216 BKN015
     FM021600 22008KT P6SM VCSH BKN040 BKN150
     FM022000 22008KT P6SM -SHRA VCTS BKN040CB BKN150
      TEMPO 0221/0224 4SM TSRA BKN035CB
     FM030100 VRB02KT P6SM VCSH SCT040 BKN150=

USA.gov is the U.S. government's official web portal to all federal, state and local government web resources and services.